createdAt,value
2019-03-17T00:01:23.982Z,97235.73
2019-03-17T00:05:29.683Z,97234.04
2019-03-17T00:09:35.367Z,97227.70
2019-03-17T00:13:41.153Z,97228.31
2019-03-17T00:17:46.859Z,97228.47
2019-03-17T00:21:52.557Z,97228.20
2019-03-17T00:25:58.247Z,97226.23
2019-03-17T00:30:05.173Z,97226.52
2019-03-17T00:34:10.857Z,97215.61
2019-03-17T00:38:16.563Z,97208.95
2019-03-17T00:42:22.327Z,97206.05
2019-03-17T00:46:28.001Z,97200.59
2019-03-17T00:50:33.767Z,97198.77
2019-03-17T00:54:39.456Z,97196.05
2019-03-17T00:58:45.157Z,97194.08
2019-03-17T01:02:50.867Z,97180.88
2019-03-17T01:06:56.535Z,97173.00
2019-03-17T01:11:02.269Z,97174.53
2019-03-17T01:15:09.173Z,97165.73
2019-03-17T01:19:14.871Z,97155.58
2019-03-17T01:23:20.584Z,97156.61
2019-03-17T01:27:26.263Z,97142.25
2019-03-17T01:31:32.025Z,97127.52
2019-03-17T01:35:37.821Z,97117.52
2019-03-17T01:39:43.501Z,97121.00
2019-03-17T01:43:49.204Z,97112.67
2019-03-17T01:47:54.930Z,97106.91
2019-03-17T01:52:00.719Z,97101.29
2019-03-17T01:56:06.409Z,97096.28
2019-03-17T02:00:14.308Z,97100.98
2019-03-17T02:04:19.973Z,97090.34
2019-03-17T02:08:25.663Z,97095.34
2019-03-17T02:12:31.378Z,97077.61
2019-03-17T02:16:37.076Z,97065.80
2019-03-17T02:20:42.789Z,97059.59
2019-03-17T02:24:48.460Z,97049.88
2019-03-17T02:28:54.145Z,97044.28
2019-03-17T02:32:59.937Z,97046.68
2019-03-17T02:37:05.634Z,97048.50
2019-03-17T02:41:12.423Z,97050.92
2019-03-17T02:45:18.119Z,97054.72
2019-03-17T02:49:23.903Z,97046.97
2019-03-17T02:53:29.586Z,97047.31
2019-03-17T02:57:35.269Z,97049.27
2019-03-17T03:01:42.027Z,97042.78
2019-03-17T03:05:54.710Z,97039.28
2019-03-17T03:09:55.096Z,97037.66
2019-03-17T03:14:01.985Z,97036.19
2019-03-17T03:18:08.771Z,97030.64
2019-03-17T03:22:14.461Z,97033.64
2019-03-17T03:26:23.220Z,97020.75
2019-03-17T03:30:27.567Z,97015.91
2019-03-17T03:34:33.239Z,97016.49
2019-03-17T03:38:38.932Z,97003.30
2019-03-17T03:42:44.614Z,96997.70
2019-03-17T03:46:50.321Z,97002.67
2019-03-17T03:50:56.102Z,97010.25
2019-03-17T03:55:01.797Z,96995.23
2019-03-17T03:59:07.485Z,96987.35
2019-03-17T04:03:13.156Z,96980.37
2019-03-17T04:07:18.844Z,96982.22
2019-03-17T04:11:24.543Z,96985.26
2019-03-17T04:15:30.401Z,96991.45
2019-03-17T04:19:36.106Z,96987.05
2019-03-17T04:23:41.784Z,96979.79
2019-03-17T04:27:47.578Z,96971.31
2019-03-17T04:31:53.279Z,96967.66
2019-03-17T04:35:58.982Z,96963.23
2019-03-17T04:40:06.878Z,96965.17
2019-03-17T04:44:20.958Z,96956.73
2019-03-17T04:48:19.937Z,96960.20
2019-03-17T04:52:25.693Z,96945.20
2019-03-17T04:56:31.427Z,96939.13
2019-03-17T05:00:37.094Z,96936.89
2019-03-17T05:04:42.776Z,96931.62
2019-03-17T05:08:48.469Z,96930.44
2019-03-17T05:12:54.163Z,96935.16
2019-03-17T05:16:59.851Z,96939.59
2019-03-17T05:21:05.655Z,96943.08
2019-03-17T05:25:11.347Z,96953.09
2019-03-17T05:29:17.038Z,96953.10
2019-03-17T05:33:22.726Z,96956.14
2019-03-17T05:37:28.407Z,96948.16
2019-03-17T05:41:34.095Z,96950.92
2019-03-17T05:45:39.780Z,96952.32
2019-03-17T05:49:45.478Z,96946.57
2019-03-17T05:53:51.170Z,96954.47
2019-03-17T05:57:57.103Z,96953.72
2019-03-17T09:12:19.410Z,96963.44
2019-03-17T09:16:25.095Z,96950.01
2019-03-17T09:20:30.774Z,96951.20
2019-03-17T09:24:36.465Z,96962.66
2019-03-17T09:28:42.242Z,96945.94
2019-03-17T09:32:47.959Z,96960.09
2019-03-17T09:36:53.645Z,96942.47
2019-03-17T09:40:59.414Z,96937.52
2019-03-17T09:45:09.079Z,96968.16
2019-03-17T09:49:14.764Z,96967.17
2019-03-17T09:53:20.453Z,96955.88
2019-03-17T09:57:26.176Z,96952.09
2019-03-17T10:01:31.851Z,96939.73
2019-03-17T10:05:37.557Z,96942.17
2019-03-17T10:09:43.242Z,96937.17
2019-03-17T10:13:48.950Z,96931.88
2019-03-17T10:17:54.657Z,96939.59
2019-03-17T10:22:00.364Z,96936.66
2019-03-17T10:26:06.145Z,96942.64
2019-03-17T10:30:16.054Z,96949.22
2019-03-17T10:34:21.748Z,96927.44
2019-03-17T10:38:27.455Z,96919.24
2019-03-17T10:42:34.327Z,96908.32
2019-03-17T10:46:40.135Z,96910.80
2019-03-17T10:50:49.755Z,96899.47
2019-03-17T10:54:53.220Z,96885.72
2019-03-17T10:58:58.922Z,96883.01
2019-03-17T11:03:04.765Z,96886.99
2019-03-17T11:07:10.469Z,96883.77
2019-03-17T11:11:16.161Z,96889.00
2019-03-17T11:15:24.043Z,96878.91
2019-03-17T11:19:29.736Z,96891.23
2019-03-17T11:23:35.436Z,96885.84
2019-03-17T11:27:42.115Z,96877.08
2019-03-17T11:31:47.843Z,96902.41
2019-03-17T11:35:53.489Z,96876.41
2019-03-17T11:39:59.182Z,96878.29
2019-03-17T11:44:04.968Z,96888.86
2019-03-17T11:48:10.673Z,96866.10
2019-03-17T11:52:16.438Z,96885.45
2019-03-17T11:56:22.126Z,96894.30
2019-03-17T12:00:27.834Z,96889.34
2019-03-17T12:04:33.561Z,96897.43
2019-03-17T12:08:39.313Z,96879.34
2019-03-17T12:12:44.999Z,96880.51
2019-03-17T12:16:50.699Z,96872.00
2019-03-17T12:20:56.386Z,96876.78
2019-03-17T12:25:02.187Z,96904.64
2019-03-17T12:29:08.046Z,96882.39
2019-03-17T12:33:13.716Z,96906.34
2019-03-17T12:37:19.545Z,96897.14
2019-03-17T12:41:25.254Z,96906.52
2019-03-17T12:45:30.994Z,96905.21
2019-03-17T12:49:37.663Z,96910.28
2019-03-17T12:53:43.445Z,96909.91
2019-03-17T12:58:18.649Z,96926.38
2019-03-17T13:02:24.437Z,96925.05
2019-03-17T13:06:30.122Z,96956.00
2019-03-17T13:20:20.393Z,96948.22
2019-03-17T13:25:18.890Z,96949.00
2019-03-17T13:29:24.579Z,96975.61
2019-03-17T13:34:18.266Z,96974.05
2019-03-17T13:38:25.596Z,97004.07
2019-03-17T13:42:33.894Z,97031.98
2019-03-17T13:46:39.796Z,97093.88
2019-03-17T13:55:59.960Z,97153.42
2019-03-17T14:00:14.415Z,97163.19
2019-03-17T14:04:20.167Z,97192.26
2019-03-17T14:08:25.896Z,97200.16
2019-03-17T14:13:16.759Z,97234.77
2019-03-17T14:17:22.453Z,97254.94
2019-03-17T14:21:28.155Z,97265.81
2019-03-17T14:25:36.379Z,97268.62
2019-03-17T14:29:42.104Z,97276.37
2019-03-17T14:34:17.932Z,97308.27
2019-03-17T14:38:25.115Z,97312.37
2019-03-17T14:43:15.910Z,97309.69
2019-03-17T14:47:21.626Z,97304.67
2019-03-17T14:51:27.358Z,97323.05
2019-03-17T14:55:33.046Z,97323.52
2019-03-17T14:59:38.758Z,97337.67
2019-03-17T15:04:17.577Z,97325.77
2019-03-17T15:08:23.318Z,97345.17
2019-03-17T15:13:17.131Z,97337.99
2019-03-17T15:17:22.833Z,97339.88
2019-03-17T15:22:16.551Z,97330.59
2019-03-17T15:26:22.257Z,97326.14
2019-03-17T15:31:15.901Z,97332.13
2019-03-17T15:35:21.599Z,97323.20
2019-03-17T15:40:18.910Z,97321.89
2019-03-17T15:44:24.606Z,97339.39
2019-03-17T15:48:30.305Z,97342.36
2019-03-17T15:53:17.571Z,97366.89
2019-03-17T15:57:23.306Z,97387.22
2019-03-17T16:01:29.021Z,97381.56
2019-03-17T16:06:18.819Z,97382.78
2019-03-17T16:11:16.517Z,97421.30
2019-03-17T16:15:22.282Z,97437.91
2019-03-17T16:19:27.989Z,97432.14
2019-03-17T16:23:33.684Z,97432.58
2019-03-17T16:27:39.443Z,97441.02
2019-03-17T16:36:20.489Z,97442.51
2019-03-17T16:40:31.545Z,97440.75
2019-03-17T16:44:37.316Z,97449.27
2019-03-17T16:48:43.011Z,97455.87
2019-03-17T16:52:48.845Z,97456.78
2019-03-17T16:56:54.580Z,97451.39
2019-03-17T17:01:00.417Z,97460.68
2019-03-17T17:11:18.257Z,97468.20
2019-03-17T18:09:16.551Z,97566.67
2019-03-17T18:24:20.212Z,97573.76
2019-03-17T18:35:18.366Z,97594.66
2019-03-17T18:39:24.104Z,97623.45
2019-03-17T18:43:29.842Z,97648.09
2019-03-17T18:47:35.478Z,97636.60
2019-03-17T18:51:41.220Z,97632.40
2019-03-17T18:55:46.928Z,97633.48
2019-03-17T18:59:52.645Z,97644.98
2019-03-17T19:03:58.432Z,97673.00
2019-03-17T19:08:04.168Z,97704.23
2019-03-17T19:12:09.944Z,97705.61
2019-03-17T19:16:15.660Z,97696.14
2019-03-17T19:20:22.806Z,97680.90
2019-03-17T19:24:28.494Z,97680.44
2019-03-17T19:28:34.173Z,97694.63
2019-03-17T19:32:39.938Z,97705.58
2019-03-17T19:36:45.635Z,97716.95
2019-03-17T19:40:51.340Z,97737.63
2019-03-17T19:44:57.012Z,97745.80
2019-03-17T19:49:04.497Z,97762.02
2019-03-17T19:53:10.271Z,97752.82
2019-03-17T19:57:16.045Z,97752.28
2019-03-17T20:01:21.783Z,97749.48
2019-03-17T20:05:27.442Z,97781.95
2019-03-17T20:09:33.175Z,97808.80
2019-03-17T20:13:38.880Z,97811.28
2019-03-17T20:17:44.706Z,97809.07
2019-03-17T20:21:50.427Z,97806.20
2019-03-17T20:25:56.108Z,97812.64
2019-03-17T20:30:01.819Z,97808.19
2019-03-17T20:34:08.609Z,97806.09
2019-03-17T20:38:14.333Z,97825.01
2019-03-17T20:42:19.993Z,97815.00
2019-03-17T20:46:25.749Z,97825.57
2019-03-17T20:50:31.459Z,97847.44
2019-03-17T20:54:37.161Z,97851.72
2019-03-17T20:58:42.854Z,97852.30
2019-03-17T21:02:48.619Z,97869.94
2019-03-17T21:06:54.321Z,97867.66
2019-03-17T21:11:00.100Z,97889.39
2019-03-17T21:15:15.850Z,97880.84
2019-03-17T21:19:21.540Z,97903.69
2019-03-17T21:29:17.317Z,97901.84
2019-03-17T21:33:28.690Z,97922.24
2019-03-17T21:37:34.412Z,97916.52
2019-03-17T21:42:16.181Z,97941.36
2019-03-17T21:46:21.890Z,97947.64
2019-03-17T21:50:27.653Z,97937.41
2019-03-17T21:54:33.314Z,97969.01
2019-03-17T21:58:39.002Z,97990.61
2019-03-17T22:03:18.999Z,97981.30
2019-03-17T22:07:24.699Z,97973.57
2019-03-17T22:11:30.412Z,97974.13
2019-03-17T22:15:36.154Z,97972.14
2019-03-17T22:19:41.821Z,97978.58
2019-03-17T22:28:20.240Z,97987.83
2019-03-17T22:32:25.994Z,97996.31
2019-03-17T22:36:31.678Z,98006.83
2019-03-17T22:40:37.409Z,98003.52
2019-03-17T22:44:43.091Z,98012.83
2019-03-17T22:48:48.841Z,98017.45
2019-03-17T22:52:54.544Z,98015.14
2019-03-17T22:57:00.253Z,98024.09
2019-03-17T23:01:06.183Z,98033.47
2019-03-17T23:05:12.153Z,98028.30
2019-03-17T23:09:18.798Z,98027.16
2019-03-17T23:13:24.486Z,98026.77
2019-03-17T23:17:30.159Z,98023.12
2019-03-17T23:21:35.833Z,98017.57
2019-03-17T23:25:41.535Z,98013.87
2019-03-17T23:29:47.227Z,98014.89
2019-03-17T23:33:52.964Z,98018.03
2019-03-17T23:37:58.668Z,98020.52
2019-03-17T23:42:04.430Z,98018.81
2019-03-17T23:46:10.134Z,98020.18
2019-03-17T23:50:16.238Z,98033.45
2019-03-17T23:54:21.944Z,98031.53
2019-03-17T23:58:27.622Z,98026.53
